Impacts TAF Board
For situational awareness. Not to be used for flight planning purposes.
IDs:

KMEI - Meridian/Key Fld, MS, US

Issued at 1120 UTC 15 Oct 2018
Updated at 1513 UTC 15 Oct 2018
Potential Impact None Slight Moderate High
Time<<16/04Z 16/05Z 16/06Z 16/07Z 16/08Z 16/09Z 16/10Z 16/11Z 16/12Z 16/13Z 16/14Z 16/15Z 16/16Z>>
Type PRVL PRVL PRVL PRVL PRVL PRVL PRVL PRVL
VIS >6 >6 >6 >6 >6 >6 >6 >6
CIG 25 25 25 25 25 25 25 25
Cover BKN BKN BKN BKN BKN BKN BKN BKN
FltCat MVFR MVFR MVFR MVFR MVFR MVFR MVFR MVFR
WX -- -- -- -- -- -- -- --
WDir 10 10 10 10 10 10 10 10
WSpd 7 7 7 7 7 7 7 7
WGst -- -- -- -- -- -- -- --
Raw TAF
KMEI 151120Z 1512/1612 00000KT P6SM SCT015
  FM151500 24004KT P6SM SCT025
  FM152100 32006KT P6SM VCSH BKN035
  FM160000 01007KT P6SM BKN025


METAR Board
Radar Display
Forecast Discussion
For situational awareness. Not to be used for flight planning purposes.